sensor_id;sensor_type;location;lat;lon;timestamp;P1;durP1;ratioP1;P2;durP2;ratioP2
48853;SDS011;34673;52.808;17.856;2023-03-04T00:00:02;28.15;;;13.70;;
48853;SDS011;34673;52.808;17.856;2023-03-04T00:02:35;31.98;;;15.18;;
48853;SDS011;34673;52.808;17.856;2023-03-04T00:05:02;32.88;;;15.40;;
48853;SDS011;34673;52.808;17.856;2023-03-04T00:07:29;28.98;;;14.65;;
48853;SDS011;34673;52.808;17.856;2023-03-04T00:09:57;28.13;;;13.80;;
48853;SDS011;34673;52.808;17.856;2023-03-04T00:12:24;33.85;;;14.68;;
48853;SDS011;34673;52.808;17.856;2023-03-04T00:14:51;32.53;;;14.75;;
48853;SDS011;34673;52.808;17.856;2023-03-04T00:17:18;30.52;;;14.10;;
48853;SDS011;34673;52.808;17.856;2023-03-04T00:19:45;30.02;;;14.65;;
48853;SDS011;34673;52.808;17.856;2023-03-04T00:22:12;29.58;;;14.70;;
48853;SDS011;34673;52.808;17.856;2023-03-04T00:24:40;28.70;;;14.48;;
48853;SDS011;34673;52.808;17.856;2023-03-04T00:27:07;34.30;;;16.60;;
48853;SDS011;34673;52.808;17.856;2023-03-04T00:29:34;33.38;;;16.70;;
48853;SDS011;34673;52.808;17.856;2023-03-04T00:32:01;31.55;;;15.63;;
48853;SDS011;34673;52.808;17.856;2023-03-04T00:34:28;34.15;;;15.68;;
48853;SDS011;34673;52.808;17.856;2023-03-04T00:36:58;35.50;;;16.92;;
48853;SDS011;34673;52.808;17.856;2023-03-04T00:39:27;31.30;;;14.82;;
48853;SDS011;34673;52.808;17.856;2023-03-04T00:41:54;27.83;;;14.57;;
48853;SDS011;34673;52.808;17.856;2023-03-04T00:44:21;31.48;;;15.65;;
48853;SDS011;34673;52.808;17.856;2023-03-04T00:46:49;34.53;;;15.77;;
48853;SDS011;34673;52.808;17.856;2023-03-04T00:49:16;34.30;;;15.80;;
48853;SDS011;34673;52.808;17.856;2023-03-04T00:51:43;32.05;;;16.52;;
48853;SDS011;34673;52.808;17.856;2023-03-04T00:54:10;30.23;;;15.98;;
48853;SDS011;34673;52.808;17.856;2023-03-04T00:56:37;31.88;;;14.57;;
48853;SDS011;34673;52.808;17.856;2023-03-04T00:59:05;29.80;;;15.27;;
48853;SDS011;34673;52.808;17.856;2023-03-04T01:01:31;33.45;;;16.33;;
48853;SDS011;34673;52.808;17.856;2023-03-04T01:03:59;37.45;;;18.15;;
48853;SDS011;34673;52.808;17.856;2023-03-04T01:06:26;41.40;;;18.98;;
48853;SDS011;34673;52.808;17.856;2023-03-04T01:08:53;37.88;;;17.52;;
48853;SDS011;34673;52.808;17.856;2023-03-04T01:11:20;33.58;;;16.27;;
48853;SDS011;34673;52.808;17.856;2023-03-04T01:13:47;36.90;;;16.63;;
48853;SDS011;34673;52.808;17.856;2023-03-04T01:16:15;34.97;;;16.10;;
48853;SDS011;34673;52.808;17.856;2023-03-04T01:18:42;31.83;;;15.32;;
48853;SDS011;34673;52.808;17.856;2023-03-04T01:21:09;29.20;;;14.27;;
48853;SDS011;34673;52.808;17.856;2023-03-04T01:23:36;31.08;;;14.45;;
48853;SDS011;34673;52.808;17.856;2023-03-04T01:26:03;32.80;;;15.13;;
48853;SDS011;34673;52.808;17.856;2023-03-04T01:28:30;34.00;;;16.13;;
48853;SDS011;34673;52.808;17.856;2023-03-04T01:31:02;31.77;;;15.00;;
48853;SDS011;34673;52.808;17.856;2023-03-04T01:33:29;29.70;;;14.75;;
48853;SDS011;34673;52.808;17.856;2023-03-04T01:35:57;29.92;;;15.32;;
48853;SDS011;34673;52.808;17.856;2023-03-04T01:38:24;28.85;;;13.55;;
48853;SDS011;34673;52.808;17.856;2023-03-04T01:40:52;29.48;;;13.85;;
48853;SDS011;34673;52.808;17.856;2023-03-04T01:43:21;29.23;;;14.10;;
48853;SDS011;34673;52.808;17.856;2023-03-04T01:45:50;32.78;;;13.80;;
48853;SDS011;34673;52.808;17.856;2023-03-04T01:48:21;27.30;;;13.70;;
48853;SDS011;34673;52.808;17.856;2023-03-04T01:50:52;32.95;;;13.77;;
48853;SDS011;34673;52.808;17.856;2023-03-04T01:53:23;33.95;;;15.32;;
48853;SDS011;34673;52.808;17.856;2023-03-04T01:55:53;28.90;;;13.13;;
48853;SDS011;34673;52.808;17.856;2023-03-04T01:58:30;30.15;;;12.45;;
48853;SDS011;34673;52.808;17.856;2023-03-04T02:00:58;26.75;;;13.65;;
48853;SDS011;34673;52.808;17.856;2023-03-04T02:03:25;27.88;;;13.98;;
48853;SDS011;34673;52.808;17.856;2023-03-04T02:05:53;31.27;;;15.20;;
48853;SDS011;34673;52.808;17.856;2023-03-04T02:08:21;28.63;;;12.52;;
48853;SDS011;34673;52.808;17.856;2023-03-04T02:10:50;26.23;;;12.93;;
48853;SDS011;34673;52.808;17.856;2023-03-04T02:13:17;29.48;;;13.30;;
48853;SDS011;34673;52.808;17.856;2023-03-04T02:15:45;28.38;;;12.45;;
48853;SDS011;34673;52.808;17.856;2023-03-04T02:18:15;25.60;;;12.88;;
48853;SDS011;34673;52.808;17.856;2023-03-04T02:23:22;29.13;;;14.05;;
48853;SDS011;34673;52.808;17.856;2023-03-04T02:28:41;25.75;;;12.50;;
48853;SDS011;34673;52.808;17.856;2023-03-04T02:34:09;26.08;;;12.45;;
48853;SDS011;34673;52.808;17.856;2023-03-04T02:36:48;29.63;;;14.07;;
48853;SDS011;34673;52.808;17.856;2023-03-04T02:41:54;26.10;;;13.60;;
48853;SDS011;34673;52.808;17.856;2023-03-04T02:44:27;26.33;;;13.45;;
48853;SDS011;34673;52.808;17.856;2023-03-04T02:47:03;26.15;;;14.43;;
48853;SDS011;34673;52.808;17.856;2023-03-04T02:49:31;30.57;;;14.23;;
48853;SDS011;34673;52.808;17.856;2023-03-04T02:52:01;31.38;;;14.25;;
48853;SDS011;34673;52.808;17.856;2023-03-04T02:54:34;29.33;;;12.48;;
48853;SDS011;34673;52.808;17.856;2023-03-04T02:57:05;28.17;;;12.77;;
48853;SDS011;34673;52.808;17.856;2023-03-04T02:59:36;26.70;;;12.82;;
48853;SDS011;34673;52.808;17.856;2023-03-04T03:02:04;29.27;;;13.48;;
48853;SDS011;34673;52.808;17.856;2023-03-04T03:04:33;26.00;;;11.50;;
48853;SDS011;34673;52.808;17.856;2023-03-04T03:07:05;28.83;;;12.15;;
48853;SDS011;34673;52.808;17.856;2023-03-04T03:09:34;27.48;;;12.98;;
48853;SDS011;34673;52.808;17.856;2023-03-04T03:12:01;25.50;;;12.88;;
48853;SDS011;34673;52.808;17.856;2023-03-04T03:14:30;25.40;;;12.90;;
48853;SDS011;34673;52.808;17.856;2023-03-04T03:16:57;25.98;;;11.50;;
48853;SDS011;34673;52.808;17.856;2023-03-04T03:19:24;28.15;;;13.25;;
48853;SDS011;34673;52.808;17.856;2023-03-04T03:21:53;24.75;;;11.90;;
48853;SDS011;34673;52.808;17.856;2023-03-04T03:24:20;24.85;;;12.07;;
48853;SDS011;34673;52.808;17.856;2023-03-04T03:26:47;27.38;;;12.13;;
48853;SDS011;34673;52.808;17.856;2023-03-04T03:29:14;25.63;;;11.45;;
48853;SDS011;34673;52.808;17.856;2023-03-04T03:31:41;27.23;;;12.88;;
48853;SDS011;34673;52.808;17.856;2023-03-04T03:34:08;22.33;;;10.50;;
48853;SDS011;34673;52.808;17.856;2023-03-04T03:36:36;22.98;;;11.20;;
48853;SDS011;34673;52.808;17.856;2023-03-04T03:39:03;21.95;;;12.63;;
48853;SDS011;34673;52.808;17.856;2023-03-04T03:41:30;27.17;;;11.30;;
48853;SDS011;34673;52.808;17.856;2023-03-04T03:43:57;23.42;;;9.82;;
48853;SDS011;34673;52.808;17.856;2023-03-04T03:46:24;21.80;;;10.98;;
48853;SDS011;34673;52.808;17.856;2023-03-04T03:48:51;24.83;;;12.02;;
48853;SDS011;34673;52.808;17.856;2023-03-04T03:51:18;22.98;;;11.63;;
48853;SDS011;34673;52.808;17.856;2023-03-04T03:53:45;23.00;;;11.65;;
48853;SDS011;34673;52.808;17.856;2023-03-04T03:56:12;22.40;;;10.85;;
48853;SDS011;34673;52.808;17.856;2023-03-04T03:58:39;23.48;;;10.80;;
48853;SDS011;34673;52.808;17.856;2023-03-04T04:01:06;25.20;;;12.75;;
48853;SDS011;34673;52.808;17.856;2023-03-04T04:03:34;24.13;;;11.20;;
48853;SDS011;34673;52.808;17.856;2023-03-04T04:06:02;22.23;;;10.52;;
48853;SDS011;34673;52.808;17.856;2023-03-04T04:08:29;22.50;;;10.93;;
48853;SDS011;34673;52.808;17.856;2023-03-04T04:10:56;28.20;;;11.95;;
48853;SDS011;34673;52.808;17.856;2023-03-04T04:13:23;25.55;;;10.57;;
48853;SDS011;34673;52.808;17.856;2023-03-04T04:15:51;21.98;;;10.32;;
48853;SDS011;34673;52.808;17.856;2023-03-04T04:18:18;23.33;;;12.13;;
48853;SDS011;34673;52.808;17.856;2023-03-04T04:20:46;26.73;;;11.27;;
48853;SDS011;34673;52.808;17.856;2023-03-04T04:23:13;22.35;;;9.85;;
48853;SDS011;34673;52.808;17.856;2023-03-04T04:25:40;25.92;;;10.05;;
48853;SDS011;34673;52.808;17.856;2023-03-04T04:28:07;23.58;;;10.30;;
48853;SDS011;34673;52.808;17.856;2023-03-04T04:30:34;26.17;;;10.68;;
48853;SDS011;34673;52.808;17.856;2023-03-04T04:33:02;26.48;;;10.32;;
48853;SDS011;34673;52.808;17.856;2023-03-04T04:35:34;24.15;;;10.13;;
48853;SDS011;34673;52.808;17.856;2023-03-04T04:38:04;23.20;;;9.45;;
48853;SDS011;34673;52.808;17.856;2023-03-04T04:40:32;34.30;;;11.23;;
48853;SDS011;34673;52.808;17.856;2023-03-04T04:42:59;19.85;;;9.80;;
48853;SDS011;34673;52.808;17.856;2023-03-04T04:45:27;21.83;;;9.23;;
48853;SDS011;34673;52.808;17.856;2023-03-04T04:47:54;25.85;;;10.48;;
48853;SDS011;34673;52.808;17.856;2023-03-04T04:50:23;25.67;;;9.68;;
48853;SDS011;34673;52.808;17.856;2023-03-04T04:52:50;19.98;;;9.80;;
48853;SDS011;34673;52.808;17.856;2023-03-04T04:55:18;22.00;;;9.55;;
48853;SDS011;34673;52.808;17.856;2023-03-04T04:57:45;21.77;;;9.13;;
48853;SDS011;34673;52.808;17.856;2023-03-04T05:00:13;20.02;;;8.75;;
48853;SDS011;34673;52.808;17.856;2023-03-04T05:02:40;24.42;;;10.25;;
48853;SDS011;34673;52.808;17.856;2023-03-04T05:05:07;18.30;;;8.88;;
48853;SDS011;34673;52.808;17.856;2023-03-04T05:07:35;22.88;;;9.82;;
48853;SDS011;34673;52.808;17.856;2023-03-04T05:10:02;20.38;;;8.30;;
48853;SDS011;34673;52.808;17.856;2023-03-04T05:12:30;21.92;;;8.82;;
48853;SDS011;34673;52.808;17.856;2023-03-04T05:14:57;24.85;;;8.73;;
48853;SDS011;34673;52.808;17.856;2023-03-04T05:17:24;24.52;;;9.10;;
48853;SDS011;34673;52.808;17.856;2023-03-04T05:19:51;19.65;;;8.23;;
48853;SDS011;34673;52.808;17.856;2023-03-04T05:22:18;23.45;;;9.73;;
48853;SDS011;34673;52.808;17.856;2023-03-04T05:24:45;20.58;;;8.63;;
48853;SDS011;34673;52.808;17.856;2023-03-04T05:27:12;19.58;;;7.72;;
48853;SDS011;34673;52.808;17.856;2023-03-04T05:29:39;29.63;;;9.18;;
48853;SDS011;34673;52.808;17.856;2023-03-04T05:32:08;21.23;;;8.00;;
48853;SDS011;34673;52.808;17.856;2023-03-04T05:34:35;19.88;;;8.30;;
48853;SDS011;34673;52.808;17.856;2023-03-04T05:37:02;21.05;;;8.23;;
48853;SDS011;34673;52.808;17.856;2023-03-04T05:39:29;20.65;;;8.77;;
48853;SDS011;34673;52.808;17.856;2023-03-04T05:41:56;20.17;;;7.60;;
48853;SDS011;34673;52.808;17.856;2023-03-04T05:44:23;21.77;;;8.30;;
48853;SDS011;34673;52.808;17.856;2023-03-04T05:46:50;21.90;;;8.45;;
48853;SDS011;34673;52.808;17.856;2023-03-04T05:49:18;28.88;;;9.02;;
48853;SDS011;34673;52.808;17.856;2023-03-04T05:51:45;21.95;;;7.85;;
48853;SDS011;34673;52.808;17.856;2023-03-04T05:54:12;18.85;;;7.68;;
48853;SDS011;34673;52.808;17.856;2023-03-04T05:56:40;20.60;;;8.25;;
48853;SDS011;34673;52.808;17.856;2023-03-04T05:59:07;19.95;;;7.40;;
48853;SDS011;34673;52.808;17.856;2023-03-04T06:01:34;21.27;;;8.20;;
48853;SDS011;34673;52.808;17.856;2023-03-04T06:04:01;24.38;;;9.50;;
48853;SDS011;34673;52.808;17.856;2023-03-04T06:06:28;20.08;;;8.20;;
48853;SDS011;34673;52.808;17.856;2023-03-04T06:08:55;20.65;;;8.82;;
48853;SDS011;34673;52.808;17.856;2023-03-04T06:11:22;21.90;;;7.80;;
48853;SDS011;34673;52.808;17.856;2023-03-04T06:13:49;22.02;;;9.02;;
48853;SDS011;34673;52.808;17.856;2023-03-04T06:16:16;28.25;;;8.93;;
48853;SDS011;34673;52.808;17.856;2023-03-04T06:18:44;19.73;;;8.18;;
48853;SDS011;34673;52.808;17.856;2023-03-04T06:21:11;24.33;;;8.45;;
48853;SDS011;34673;52.808;17.856;2023-03-04T06:23:38;28.10;;;8.90;;
48853;SDS011;34673;52.808;17.856;2023-03-04T06:26:06;24.65;;;8.88;;
48853;SDS011;34673;52.808;17.856;2023-03-04T06:28:35;27.45;;;8.85;;
48853;SDS011;34673;52.808;17.856;2023-03-04T06:31:02;22.63;;;8.02;;
48853;SDS011;34673;52.808;17.856;2023-03-04T06:33:29;22.77;;;8.75;;
48853;SDS011;34673;52.808;17.856;2023-03-04T06:35:57;20.38;;;8.43;;
48853;SDS011;34673;52.808;17.856;2023-03-04T06:38:24;26.48;;;8.45;;
48853;SDS011;34673;52.808;17.856;2023-03-04T06:40:52;24.30;;;8.48;;
48853;SDS011;34673;52.808;17.856;2023-03-04T06:43:23;22.13;;;8.38;;
48853;SDS011;34673;52.808;17.856;2023-03-04T06:45:50;20.90;;;8.70;;
48853;SDS011;34673;52.808;17.856;2023-03-04T06:48:17;24.67;;;8.90;;
48853;SDS011;34673;52.808;17.856;2023-03-04T06:50:44;28.88;;;9.55;;
48853;SDS011;34673;52.808;17.856;2023-03-04T06:53:11;32.25;;;8.77;;
48853;SDS011;34673;52.808;17.856;2023-03-04T06:55:38;25.67;;;9.40;;
48853;SDS011;34673;52.808;17.856;2023-03-04T06:58:05;26.75;;;7.97;;
48853;SDS011;34673;52.808;17.856;2023-03-04T07:00:32;27.05;;;9.45;;
48853;SDS011;34673;52.808;17.856;2023-03-04T07:03:00;27.52;;;8.98;;
48853;SDS011;34673;52.808;17.856;2023-03-04T07:05:27;24.42;;;7.95;;
48853;SDS011;34673;52.808;17.856;2023-03-04T07:07:54;23.92;;;9.10;;
48853;SDS011;34673;52.808;17.856;2023-03-04T07:10:22;26.88;;;8.27;;
48853;SDS011;34673;52.808;17.856;2023-03-04T07:12:49;29.63;;;9.07;;
48853;SDS011;34673;52.808;17.856;2023-03-04T07:15:16;22.98;;;8.23;;
48853;SDS011;34673;52.808;17.856;2023-03-04T07:17:43;27.08;;;8.73;;
48853;SDS011;34673;52.808;17.856;2023-03-04T07:20:10;26.15;;;9.57;;
48853;SDS011;34673;52.808;17.856;2023-03-04T07:22:38;25.55;;;9.05;;
48853;SDS011;34673;52.808;17.856;2023-03-04T07:25:05;33.50;;;9.27;;
48853;SDS011;34673;52.808;17.856;2023-03-04T07:27:32;25.73;;;10.32;;
48853;SDS011;34673;52.808;17.856;2023-03-04T07:30:00;21.50;;;8.80;;
48853;SDS011;34673;52.808;17.856;2023-03-04T07:32:28;23.27;;;9.88;;
48853;SDS011;34673;52.808;17.856;2023-03-04T07:34:55;26.35;;;8.80;;
48853;SDS011;34673;52.808;17.856;2023-03-04T07:37:22;25.38;;;9.38;;
48853;SDS011;34673;52.808;17.856;2023-03-04T07:39:49;25.13;;;10.02;;
48853;SDS011;34673;52.808;17.856;2023-03-04T07:42:16;28.33;;;10.00;;
48853;SDS011;34673;52.808;17.856;2023-03-04T07:44:51;26.65;;;9.02;;
48853;SDS011;34673;52.808;17.856;2023-03-04T07:47:18;23.90;;;8.68;;
48853;SDS011;34673;52.808;17.856;2023-03-04T07:49:46;22.17;;;8.23;;
48853;SDS011;34673;52.808;17.856;2023-03-04T07:52:12;23.75;;;8.25;;
48853;SDS011;34673;52.808;17.856;2023-03-04T07:54:40;32.60;;;15.15;;
48853;SDS011;34673;52.808;17.856;2023-03-04T07:57:07;28.63;;;9.38;;
48853;SDS011;34673;52.808;17.856;2023-03-04T07:59:34;26.55;;;9.00;;
48853;SDS011;34673;52.808;17.856;2023-03-04T08:02:01;22.05;;;7.47;;
48853;SDS011;34673;52.808;17.856;2023-03-04T08:04:28;25.33;;;8.57;;
48853;SDS011;34673;52.808;17.856;2023-03-04T08:06:56;20.45;;;8.05;;
48853;SDS011;34673;52.808;17.856;2023-03-04T08:09:23;21.92;;;9.30;;
48853;SDS011;34673;52.808;17.856;2023-03-04T08:11:50;25.05;;;9.20;;
48853;SDS011;34673;52.808;17.856;2023-03-04T08:14:17;21.90;;;8.00;;
48853;SDS011;34673;52.808;17.856;2023-03-04T08:16:45;27.20;;;8.48;;
48853;SDS011;34673;52.808;17.856;2023-03-04T08:19:12;20.08;;;8.80;;
48853;SDS011;34673;52.808;17.856;2023-03-04T08:21:39;16.40;;;6.53;;
48853;SDS011;34673;52.808;17.856;2023-03-04T08:24:06;23.63;;;6.88;;
48853;SDS011;34673;52.808;17.856;2023-03-04T08:26:36;23.27;;;7.28;;
48853;SDS011;34673;52.808;17.856;2023-03-04T08:29:08;20.52;;;8.35;;
48853;SDS011;34673;52.808;17.856;2023-03-04T08:34:05;27.67;;;10.52;;
48853;SDS011;34673;52.808;17.856;2023-03-04T08:36:34;23.95;;;7.95;;
48853;SDS011;34673;52.808;17.856;2023-03-04T08:39:02;29.90;;;7.97;;
48853;SDS011;34673;52.808;17.856;2023-03-04T08:41:30;23.17;;;8.35;;
48853;SDS011;34673;52.808;17.856;2023-03-04T08:43:58;22.40;;;7.47;;
48853;SDS011;34673;52.808;17.856;2023-03-04T08:46:26;20.88;;;7.28;;
48853;SDS011;34673;52.808;17.856;2023-03-04T08:48:53;22.92;;;7.10;;
48853;SDS011;34673;52.808;17.856;2023-03-04T08:51:20;18.20;;;6.80;;
48853;SDS011;34673;52.808;17.856;2023-03-04T08:53:47;23.25;;;7.57;;
48853;SDS011;34673;52.808;17.856;2023-03-04T08:56:14;24.00;;;7.70;;
48853;SDS011;34673;52.808;17.856;2023-03-04T08:58:42;21.08;;;7.60;;
48853;SDS011;34673;52.808;17.856;2023-03-04T09:01:10;20.15;;;7.60;;
48853;SDS011;34673;52.808;17.856;2023-03-04T09:03:38;21.58;;;7.70;;
48853;SDS011;34673;52.808;17.856;2023-03-04T09:06:06;23.77;;;7.68;;
48853;SDS011;34673;52.808;17.856;2023-03-04T09:08:34;25.05;;;8.05;;
48853;SDS011;34673;52.808;17.856;2023-03-04T09:11:01;20.98;;;7.07;;
48853;SDS011;34673;52.808;17.856;2023-03-04T09:13:29;30.98;;;8.73;;
48853;SDS011;34673;52.808;17.856;2023-03-04T09:15:57;30.77;;;9.52;;
48853;SDS011;34673;52.808;17.856;2023-03-04T09:18:26;22.70;;;8.80;;
48853;SDS011;34673;52.808;17.856;2023-03-04T09:20:53;34.75;;;8.70;;
48853;SDS011;34673;52.808;17.856;2023-03-04T09:23:21;20.98;;;7.85;;
48853;SDS011;34673;52.808;17.856;2023-03-04T09:25:49;22.20;;;8.57;;
48853;SDS011;34673;52.808;17.856;2023-03-04T09:28:16;19.65;;;7.28;;
48853;SDS011;34673;52.808;17.856;2023-03-04T09:30:45;23.20;;;8.68;;
48853;SDS011;34673;52.808;17.856;2023-03-04T09:33:12;16.40;;;6.85;;
48853;SDS011;34673;52.808;17.856;2023-03-04T09:35:39;21.95;;;8.80;;
48853;SDS011;34673;52.808;17.856;2023-03-04T09:38:07;25.00;;;7.60;;
48853;SDS011;34673;52.808;17.856;2023-03-04T09:40:42;17.85;;;7.43;;
48853;SDS011;34673;52.808;17.856;2023-03-04T09:43:22;17.20;;;6.60;;
48853;SDS011;34673;52.808;17.856;2023-03-04T09:45:56;20.63;;;7.28;;
48853;SDS011;34673;52.808;17.856;2023-03-04T09:48:34;20.88;;;7.47;;
48853;SDS011;34673;52.808;17.856;2023-03-04T09:54:13;25.80;;;7.72;;
48853;SDS011;34673;52.808;17.856;2023-03-04T09:56:46;20.73;;;8.18;;
48853;SDS011;34673;52.808;17.856;2023-03-04T09:59:24;15.30;;;6.78;;
48853;SDS011;34673;52.808;17.856;2023-03-04T10:02:14;20.95;;;7.43;;
48853;SDS011;34673;52.808;17.856;2023-03-04T10:04:55;19.77;;;7.22;;
48853;SDS011;34673;52.808;17.856;2023-03-04T10:07:32;20.83;;;7.85;;
48853;SDS011;34673;52.808;17.856;2023-03-04T10:10:03;23.88;;;8.02;;
48853;SDS011;34673;52.808;17.856;2023-03-04T10:12:42;24.33;;;9.02;;
48853;SDS011;34673;52.808;17.856;2023-03-04T10:20:55;21.05;;;7.63;;
48853;SDS011;34673;52.808;17.856;2023-03-04T10:23:27;24.38;;;8.85;;
48853;SDS011;34673;52.808;17.856;2023-03-04T10:28:25;17.75;;;7.25;;
48853;SDS011;34673;52.808;17.856;2023-03-04T10:33:48;16.33;;;6.72;;
48853;SDS011;34673;52.808;17.856;2023-03-04T10:38:45;13.25;;;6.22;;
48853;SDS011;34673;52.808;17.856;2023-03-04T10:41:16;12.45;;;5.57;;
48853;SDS011;34673;52.808;17.856;2023-03-04T10:46:42;11.50;;;5.80;;
48853;SDS011;34673;52.808;17.856;2023-03-04T10:49:12;14.60;;;5.82;;
48853;SDS011;34673;52.808;17.856;2023-03-04T10:51:42;17.13;;;6.82;;
48853;SDS011;34673;52.808;17.856;2023-03-04T10:54:16;15.82;;;6.00;;
48853;SDS011;34673;52.808;17.856;2023-03-04T10:57:02;14.70;;;6.47;;
48853;SDS011;34673;52.808;17.856;2023-03-04T10:59:42;13.60;;;6.05;;
48853;SDS011;34673;52.808;17.856;2023-03-04T11:04:53;6.55;;;2.33;;
48853;SDS011;34673;52.808;17.856;2023-03-04T11:07:21;5.63;;;1.77;;
48853;SDS011;34673;52.808;17.856;2023-03-04T11:09:50;5.60;;;1.38;;
48853;SDS011;34673;52.808;17.856;2023-03-04T11:12:21;3.88;;;1.42;;
48853;SDS011;34673;52.808;17.856;2023-03-04T11:14:58;5.25;;;1.70;;
48853;SDS011;34673;52.808;17.856;2023-03-04T11:17:28;4.13;;;1.63;;
48853;SDS011;34673;52.808;17.856;2023-03-04T11:22:46;7.25;;;1.88;;
48853;SDS011;34673;52.808;17.856;2023-03-04T11:25:24;8.25;;;2.20;;
48853;SDS011;34673;52.808;17.856;2023-03-04T11:27:54;6.03;;;2.38;;
48853;SDS011;34673;52.808;17.856;2023-03-04T11:33:25;6.57;;;2.00;;
48853;SDS011;34673;52.808;17.856;2023-03-04T11:38:46;4.60;;;1.55;;
48853;SDS011;34673;52.808;17.856;2023-03-04T11:41:16;8.32;;;2.10;;
48853;SDS011;34673;52.808;17.856;2023-03-04T11:43:49;9.05;;;2.35;;
48853;SDS011;34673;52.808;17.856;2023-03-04T11:49:06;10.88;;;2.78;;
48853;SDS011;34673;52.808;17.856;2023-03-04T11:52:01;12.43;;;3.67;;
48853;SDS011;34673;52.808;17.856;2023-03-04T12:02:50;16.95;;;5.68;;
48853;SDS011;34673;52.808;17.856;2023-03-04T12:10:58;17.63;;;5.13;;
48853;SDS011;34673;52.808;17.856;2023-03-04T12:29:55;27.00;;;8.73;;
48853;SDS011;34673;52.808;17.856;2023-03-04T12:32:33;19.58;;;6.57;;
48853;SDS011;34673;52.808;17.856;2023-03-04T12:37:45;14.20;;;4.97;;
48853;SDS011;34673;52.808;17.856;2023-03-04T12:43:06;7.43;;;2.60;;
48853;SDS011;34673;52.808;17.856;2023-03-04T12:48:21;8.05;;;2.10;;
48853;SDS011;34673;52.808;17.856;2023-03-04T12:54:08;5.55;;;1.42;;
48853;SDS011;34673;52.808;17.856;2023-03-04T12:57:11;4.88;;;1.17;;
48853;SDS011;34673;52.808;17.856;2023-03-04T13:02:58;3.05;;;0.82;;
48853;SDS011;34673;52.808;17.856;2023-03-04T13:08:31;7.30;;;1.70;;
48853;SDS011;34673;52.808;17.856;2023-03-04T13:16:48;3.85;;;1.10;;
48853;SDS011;34673;52.808;17.856;2023-03-04T13:22:33;4.35;;;1.13;;
48853;SDS011;34673;52.808;17.856;2023-03-04T13:43:27;4.78;;;0.95;;
48853;SDS011;34673;52.808;17.856;2023-03-04T13:51:20;1.90;;;0.60;;
48853;SDS011;34673;52.808;17.856;2023-03-04T13:59:29;1.95;;;0.68;;
48853;SDS011;34673;52.808;17.856;2023-03-04T14:02:19;1.77;;;0.63;;
48853;SDS011;34673;52.808;17.856;2023-03-04T14:04:58;3.78;;;0.80;;
48853;SDS011;34673;52.808;17.856;2023-03-04T14:10:02;5.75;;;1.65;;
48853;SDS011;34673;52.808;17.856;2023-03-04T14:12:36;6.55;;;1.85;;
48853;SDS011;34673;52.808;17.856;2023-03-04T14:17:43;7.57;;;1.08;;
48853;SDS011;34673;52.808;17.856;2023-03-04T14:22:55;3.00;;;0.82;;
48853;SDS011;34673;52.808;17.856;2023-03-04T14:30:51;3.45;;;0.75;;
48853;SDS011;34673;52.808;17.856;2023-03-04T14:33:23;5.93;;;1.00;;
48853;SDS011;34673;52.808;17.856;2023-03-04T14:35:56;3.28;;;0.80;;
48853;SDS011;34673;52.808;17.856;2023-03-04T14:38:30;2.55;;;0.80;;
48853;SDS011;34673;52.808;17.856;2023-03-04T14:41:23;1.70;;;0.47;;
48853;SDS011;34673;52.808;17.856;2023-03-04T14:46:43;2.70;;;0.65;;
48853;SDS011;34673;52.808;17.856;2023-03-04T14:49:36;4.00;;;1.05;;
48853;SDS011;34673;52.808;17.856;2023-03-04T14:52:05;7.15;;;2.80;;
48853;SDS011;34673;52.808;17.856;2023-03-04T14:54:41;1.95;;;0.57;;
48853;SDS011;34673;52.808;17.856;2023-03-04T14:57:25;2.92;;;0.70;;
48853;SDS011;34673;52.808;17.856;2023-03-04T15:00:12;4.57;;;1.27;;
48853;SDS011;34673;52.808;17.856;2023-03-04T15:02:40;6.85;;;2.28;;
48853;SDS011;34673;52.808;17.856;2023-03-04T15:05:09;5.50;;;1.60;;
48853;SDS011;34673;52.808;17.856;2023-03-04T15:07:43;7.30;;;1.65;;
48853;SDS011;34673;52.808;17.856;2023-03-04T15:10:19;3.22;;;1.45;;
48853;SDS011;34673;52.808;17.856;2023-03-04T15:12:51;5.50;;;1.65;;
48853;SDS011;34673;52.808;17.856;2023-03-04T15:18:02;3.38;;;1.05;;
48853;SDS011;34673;52.808;17.856;2023-03-04T15:20:41;3.15;;;1.00;;
48853;SDS011;34673;52.808;17.856;2023-03-04T15:23:08;1.95;;;0.63;;
48853;SDS011;34673;52.808;17.856;2023-03-04T15:25:40;2.20;;;0.70;;
48853;SDS011;34673;52.808;17.856;2023-03-04T15:28:11;2.05;;;0.60;;
48853;SDS011;34673;52.808;17.856;2023-03-04T15:30:43;3.40;;;1.10;;
48853;SDS011;34673;52.808;17.856;2023-03-04T15:33:10;1.73;;;0.70;;
48853;SDS011;34673;52.808;17.856;2023-03-04T15:35:38;2.55;;;0.80;;
48853;SDS011;34673;52.808;17.856;2023-03-04T15:38:07;1.80;;;0.57;;
48853;SDS011;34673;52.808;17.856;2023-03-04T15:40:39;4.75;;;1.30;;
48853;SDS011;34673;52.808;17.856;2023-03-04T15:43:15;2.08;;;0.85;;
48853;SDS011;34673;52.808;17.856;2023-03-04T15:45:47;3.92;;;1.23;;
48853;SDS011;34673;52.808;17.856;2023-03-04T15:48:16;2.72;;;0.70;;
48853;SDS011;34673;52.808;17.856;2023-03-04T15:50:48;2.10;;;0.70;;
48853;SDS011;34673;52.808;17.856;2023-03-04T15:55:51;3.70;;;0.90;;
48853;SDS011;34673;52.808;17.856;2023-03-04T15:58:19;2.35;;;0.93;;
48853;SDS011;34673;52.808;17.856;2023-03-04T16:00:46;4.65;;;1.10;;
48853;SDS011;34673;52.808;17.856;2023-03-04T16:03:17;3.35;;;1.00;;
48853;SDS011;34673;52.808;17.856;2023-03-04T16:05:47;4.35;;;1.10;;
48853;SDS011;34673;52.808;17.856;2023-03-04T16:08:17;2.50;;;0.77;;
48853;SDS011;34673;52.808;17.856;2023-03-04T16:10:47;4.28;;;0.90;;
48853;SDS011;34673;52.808;17.856;2023-03-04T16:13:17;2.75;;;0.63;;
48853;SDS011;34673;52.808;17.856;2023-03-04T16:15:46;3.95;;;0.95;;
48853;SDS011;34673;52.808;17.856;2023-03-04T16:18:15;3.33;;;0.90;;
48853;SDS011;34673;52.808;17.856;2023-03-04T16:20:46;2.08;;;0.63;;
48853;SDS011;34673;52.808;17.856;2023-03-04T16:23:16;3.70;;;0.88;;
48853;SDS011;34673;52.808;17.856;2023-03-04T16:25:47;2.20;;;0.90;;
48853;SDS011;34673;52.808;17.856;2023-03-04T16:28:16;4.70;;;0.88;;
48853;SDS011;34673;52.808;17.856;2023-03-04T16:30:43;2.83;;;0.77;;
48853;SDS011;34673;52.808;17.856;2023-03-04T16:33:11;2.75;;;0.77;;
48853;SDS011;34673;52.808;17.856;2023-03-04T16:35:38;3.03;;;1.05;;
48853;SDS011;34673;52.808;17.856;2023-03-04T16:38:11;2.83;;;0.90;;
48853;SDS011;34673;52.808;17.856;2023-03-04T16:40:46;4.30;;;1.10;;
48853;SDS011;34673;52.808;17.856;2023-03-04T16:43:14;3.15;;;1.10;;
48853;SDS011;34673;52.808;17.856;2023-03-04T16:45:41;3.35;;;0.95;;
48853;SDS011;34673;52.808;17.856;2023-03-04T16:48:09;3.05;;;1.25;;
48853;SDS011;34673;52.808;17.856;2023-03-04T16:50:37;3.95;;;1.27;;
48853;SDS011;34673;52.808;17.856;2023-03-04T16:53:04;5.85;;;1.60;;
48853;SDS011;34673;52.808;17.856;2023-03-04T16:55:44;3.92;;;1.55;;
48853;SDS011;34673;52.808;17.856;2023-03-04T16:58:11;5.95;;;1.75;;
48853;SDS011;34673;52.808;17.856;2023-03-04T17:00:38;7.55;;;2.58;;
48853;SDS011;34673;52.808;17.856;2023-03-04T17:03:05;6.55;;;2.63;;
48853;SDS011;34673;52.808;17.856;2023-03-04T17:05:35;7.82;;;2.30;;
48853;SDS011;34673;52.808;17.856;2023-03-04T17:08:03;7.32;;;2.22;;